sensor_id;sensor_type;location;lat;lon;timestamp;P1;durP1;ratioP1;P2;durP2;ratioP2
21138;SDS011;10727;43.600;1.444;2023-04-01T00:02:02;22.00;;;4.40;;
21138;SDS011;10727;43.600;1.444;2023-04-01T00:05:08;23.40;;;4.68;;
21138;SDS011;10727;43.600;1.444;2023-04-01T00:08:14;24.20;;;4.57;;
21138;SDS011;10727;43.600;1.444;2023-04-01T00:11:21;16.58;;;4.03;;
21138;SDS011;10727;43.600;1.444;2023-04-01T00:14:26;18.15;;;4.25;;
21138;SDS011;10727;43.600;1.444;2023-04-01T00:17:32;25.20;;;4.75;;
21138;SDS011;10727;43.600;1.444;2023-04-01T00:20:37;25.50;;;4.80;;
21138;SDS011;10727;43.600;1.444;2023-04-01T00:23:43;21.85;;;4.50;;
21138;SDS011;10727;43.600;1.444;2023-04-01T00:26:50;23.10;;;4.18;;
21138;SDS011;10727;43.600;1.444;2023-04-01T00:29:55;24.45;;;4.53;;
21138;SDS011;10727;43.600;1.444;2023-04-01T00:33:00;20.88;;;4.13;;
21138;SDS011;10727;43.600;1.444;2023-04-01T00:36:07;23.77;;;4.55;;
21138;SDS011;10727;43.600;1.444;2023-04-01T00:39:13;22.80;;;4.50;;
21138;SDS011;10727;43.600;1.444;2023-04-01T00:42:19;23.88;;;4.45;;
21138;SDS011;10727;43.600;1.444;2023-04-01T00:45:29;30.08;;;5.07;;
21138;SDS011;10727;43.600;1.444;2023-04-01T00:48:35;22.90;;;4.55;;
21138;SDS011;10727;43.600;1.444;2023-04-01T00:51:41;27.67;;;4.63;;
21138;SDS011;10727;43.600;1.444;2023-04-01T00:54:49;23.23;;;4.38;;
21138;SDS011;10727;43.600;1.444;2023-04-01T00:57:55;21.25;;;4.40;;
21138;SDS011;10727;43.600;1.444;2023-04-01T01:01:01;20.50;;;4.50;;
21138;SDS011;10727;43.600;1.444;2023-04-01T01:04:06;23.35;;;4.60;;
21138;SDS011;10727;43.600;1.444;2023-04-01T01:07:13;27.00;;;5.00;;
21138;SDS011;10727;43.600;1.444;2023-04-01T01:10:23;19.85;;;4.28;;
21138;SDS011;10727;43.600;1.444;2023-04-01T01:13:31;18.98;;;4.22;;
21138;SDS011;10727;43.600;1.444;2023-04-01T01:16:39;21.77;;;4.03;;
21138;SDS011;10727;43.600;1.444;2023-04-01T01:19:58;26.83;;;4.72;;
21138;SDS011;10727;43.600;1.444;2023-04-01T01:26:56;26.10;;;4.05;;
21138;SDS011;10727;43.600;1.444;2023-04-01T01:33:34;20.48;;;4.30;;
21138;SDS011;10727;43.600;1.444;2023-04-01T01:36:42;21.60;;;4.28;;
21138;SDS011;10727;43.600;1.444;2023-04-01T01:39:49;25.00;;;4.75;;
21138;SDS011;10727;43.600;1.444;2023-04-01T01:42:56;21.40;;;4.28;;
21138;SDS011;10727;43.600;1.444;2023-04-01T01:46:03;31.30;;;5.10;;
21138;SDS011;10727;43.600;1.444;2023-04-01T01:49:11;22.88;;;4.68;;
21138;SDS011;10727;43.600;1.444;2023-04-01T01:52:18;26.25;;;4.22;;
21138;SDS011;10727;43.600;1.444;2023-04-01T01:55:26;18.08;;;4.57;;
21138;SDS011;10727;43.600;1.444;2023-04-01T01:58:33;26.67;;;4.85;;
21138;SDS011;10727;43.600;1.444;2023-04-01T02:01:45;29.23;;;4.80;;
21138;SDS011;10727;43.600;1.444;2023-04-01T02:04:51;25.38;;;4.47;;
21138;SDS011;10727;43.600;1.444;2023-04-01T02:08:01;21.10;;;3.95;;
21138;SDS011;10727;43.600;1.444;2023-04-01T02:11:07;26.65;;;4.93;;
21138;SDS011;10727;43.600;1.444;2023-04-01T02:14:17;19.25;;;4.10;;
21138;SDS011;10727;43.600;1.444;2023-04-01T02:17:25;21.63;;;4.25;;
21138;SDS011;10727;43.600;1.444;2023-04-01T02:20:31;24.30;;;4.40;;
21138;SDS011;10727;43.600;1.444;2023-04-01T02:23:38;23.50;;;4.35;;
21138;SDS011;10727;43.600;1.444;2023-04-01T02:26:43;23.02;;;4.57;;
21138;SDS011;10727;43.600;1.444;2023-04-01T02:29:49;18.40;;;3.67;;
21138;SDS011;10727;43.600;1.444;2023-04-01T02:32:54;20.75;;;3.83;;
21138;SDS011;10727;43.600;1.444;2023-04-01T02:36:00;22.88;;;4.18;;
21138;SDS011;10727;43.600;1.444;2023-04-01T02:39:06;22.95;;;4.00;;
21138;SDS011;10727;43.600;1.444;2023-04-01T02:42:13;26.60;;;4.20;;
21138;SDS011;10727;43.600;1.444;2023-04-01T02:45:18;27.27;;;4.63;;
21138;SDS011;10727;43.600;1.444;2023-04-01T02:48:23;21.25;;;4.47;;
21138;SDS011;10727;43.600;1.444;2023-04-01T02:51:28;23.00;;;3.97;;
21138;SDS011;10727;43.600;1.444;2023-04-01T02:54:35;22.10;;;4.07;;
21138;SDS011;10727;43.600;1.444;2023-04-01T02:57:41;25.75;;;4.43;;
21138;SDS011;10727;43.600;1.444;2023-04-01T03:00:46;20.20;;;4.18;;
21138;SDS011;10727;43.600;1.444;2023-04-01T03:03:51;23.73;;;4.60;;
21138;SDS011;10727;43.600;1.444;2023-04-01T03:06:57;24.50;;;4.38;;
21138;SDS011;10727;43.600;1.444;2023-04-01T03:10:04;20.75;;;3.70;;
21138;SDS011;10727;43.600;1.444;2023-04-01T03:13:09;26.60;;;4.65;;
21138;SDS011;10727;43.600;1.444;2023-04-01T03:16:14;21.17;;;4.50;;
21138;SDS011;10727;43.600;1.444;2023-04-01T03:19:19;29.33;;;4.43;;
21138;SDS011;10727;43.600;1.444;2023-04-01T03:22:24;24.70;;;4.45;;
21138;SDS011;10727;43.600;1.444;2023-04-01T03:25:31;23.95;;;4.50;;
21138;SDS011;10727;43.600;1.444;2023-04-01T03:28:37;19.30;;;4.28;;
21138;SDS011;10727;43.600;1.444;2023-04-01T03:31:42;27.23;;;4.30;;
21138;SDS011;10727;43.600;1.444;2023-04-01T03:34:48;26.88;;;4.95;;
21138;SDS011;10727;43.600;1.444;2023-04-01T03:37:53;26.85;;;4.75;;
21138;SDS011;10727;43.600;1.444;2023-04-01T03:41:00;26.05;;;5.18;;
21138;SDS011;10727;43.600;1.444;2023-04-01T03:44:05;28.50;;;4.60;;
21138;SDS011;10727;43.600;1.444;2023-04-01T03:47:10;28.45;;;4.50;;
21138;SDS011;10727;43.600;1.444;2023-04-01T03:50:15;23.25;;;4.63;;
21138;SDS011;10727;43.600;1.444;2023-04-01T03:53:21;24.73;;;4.35;;
21138;SDS011;10727;43.600;1.444;2023-04-01T03:56:28;18.65;;;4.28;;
21138;SDS011;10727;43.600;1.444;2023-04-01T03:59:33;27.48;;;4.80;;
21138;SDS011;10727;43.600;1.444;2023-04-01T04:02:39;21.10;;;4.13;;
21138;SDS011;10727;43.600;1.444;2023-04-01T04:05:46;29.38;;;4.60;;
21138;SDS011;10727;43.600;1.444;2023-04-01T04:08:53;23.90;;;4.57;;
21138;SDS011;10727;43.600;1.444;2023-04-01T04:12:00;28.40;;;4.35;;
21138;SDS011;10727;43.600;1.444;2023-04-01T04:15:06;24.58;;;4.82;;
21138;SDS011;10727;43.600;1.444;2023-04-01T04:18:12;26.70;;;4.22;;
21138;SDS011;10727;43.600;1.444;2023-04-01T04:21:17;25.08;;;4.22;;
21138;SDS011;10727;43.600;1.444;2023-04-01T04:24:22;27.50;;;5.13;;
21138;SDS011;10727;43.600;1.444;2023-04-01T04:27:39;24.55;;;4.25;;
21138;SDS011;10727;43.600;1.444;2023-04-01T04:30:47;23.60;;;4.40;;
21138;SDS011;10727;43.600;1.444;2023-04-01T04:33:52;27.23;;;4.30;;
21138;SDS011;10727;43.600;1.444;2023-04-01T04:36:58;23.83;;;4.32;;
21138;SDS011;10727;43.600;1.444;2023-04-01T04:40:07;19.05;;;4.28;;
21138;SDS011;10727;43.600;1.444;2023-04-01T04:43:15;20.67;;;4.15;;
21138;SDS011;10727;43.600;1.444;2023-04-01T04:46:20;25.73;;;4.30;;
21138;SDS011;10727;43.600;1.444;2023-04-01T04:49:30;19.25;;;4.30;;
21138;SDS011;10727;43.600;1.444;2023-04-01T04:52:40;24.57;;;4.00;;
21138;SDS011;10727;43.600;1.444;2023-04-01T04:55:45;24.73;;;4.30;;
21138;SDS011;10727;43.600;1.444;2023-04-01T04:59:03;20.45;;;4.13;;
21138;SDS011;10727;43.600;1.444;2023-04-01T05:02:18;24.45;;;4.63;;
21138;SDS011;10727;43.600;1.444;2023-04-01T05:05:24;20.73;;;3.88;;
21138;SDS011;10727;43.600;1.444;2023-04-01T05:08:29;23.70;;;4.45;;
21138;SDS011;10727;43.600;1.444;2023-04-01T05:11:35;22.75;;;4.00;;
21138;SDS011;10727;43.600;1.444;2023-04-01T05:14:42;17.55;;;4.45;;
21138;SDS011;10727;43.600;1.444;2023-04-01T05:17:47;23.60;;;4.90;;
21138;SDS011;10727;43.600;1.444;2023-04-01T05:20:53;21.48;;;4.45;;
21138;SDS011;10727;43.600;1.444;2023-04-01T05:23:59;23.05;;;4.25;;
21138;SDS011;10727;43.600;1.444;2023-04-01T05:27:04;25.65;;;4.45;;
21138;SDS011;10727;43.600;1.444;2023-04-01T05:30:13;26.05;;;4.43;;
21138;SDS011;10727;43.600;1.444;2023-04-01T05:33:35;21.17;;;3.70;;
21138;SDS011;10727;43.600;1.444;2023-04-01T05:36:41;24.88;;;4.72;;
21138;SDS011;10727;43.600;1.444;2023-04-01T05:39:47;20.08;;;4.20;;
21138;SDS011;10727;43.600;1.444;2023-04-01T05:42:52;25.25;;;4.43;;
21138;SDS011;10727;43.600;1.444;2023-04-01T05:45:58;20.30;;;4.18;;
21138;SDS011;10727;43.600;1.444;2023-04-01T05:49:13;25.70;;;4.40;;
21138;SDS011;10727;43.600;1.444;2023-04-01T05:52:19;21.33;;;4.28;;
21138;SDS011;10727;43.600;1.444;2023-04-01T05:55:24;24.38;;;4.35;;
21138;SDS011;10727;43.600;1.444;2023-04-01T05:58:30;27.27;;;4.53;;
21138;SDS011;10727;43.600;1.444;2023-04-01T06:01:37;21.27;;;4.68;;
21138;SDS011;10727;43.600;1.444;2023-04-01T06:04:42;24.45;;;4.05;;
21138;SDS011;10727;43.600;1.444;2023-04-01T06:07:47;17.83;;;4.15;;
21138;SDS011;10727;43.600;1.444;2023-04-01T06:11:03;23.95;;;4.82;;
21138;SDS011;10727;43.600;1.444;2023-04-01T06:14:11;27.23;;;5.00;;
21138;SDS011;10727;43.600;1.444;2023-04-01T06:17:26;27.67;;;5.10;;
21138;SDS011;10727;43.600;1.444;2023-04-01T06:20:32;27.90;;;4.60;;
21138;SDS011;10727;43.600;1.444;2023-04-01T06:23:47;20.10;;;3.88;;
21138;SDS011;10727;43.600;1.444;2023-04-01T06:27:00;25.45;;;4.60;;
21138;SDS011;10727;43.600;1.444;2023-04-01T06:30:10;25.65;;;4.05;;
21138;SDS011;10727;43.600;1.444;2023-04-01T06:33:22;87.47;;;45.08;;
21138;SDS011;10727;43.600;1.444;2023-04-01T06:36:36;50.33;;;20.35;;
21138;SDS011;10727;43.600;1.444;2023-04-01T06:39:50;25.30;;;5.63;;
21138;SDS011;10727;43.600;1.444;2023-04-01T06:43:01;26.17;;;4.50;;
21138;SDS011;10727;43.600;1.444;2023-04-01T06:46:31;23.25;;;4.03;;
21138;SDS011;10727;43.600;1.444;2023-04-01T06:50:01;20.67;;;4.05;;
21138;SDS011;10727;43.600;1.444;2023-04-01T06:53:29;19.63;;;3.60;;
21138;SDS011;10727;43.600;1.444;2023-04-01T06:56:49;17.77;;;3.45;;
21138;SDS011;10727;43.600;1.444;2023-04-01T07:00:00;35.13;;;14.75;;
21138;SDS011;10727;43.600;1.444;2023-04-01T07:03:09;24.17;;;4.55;;
21138;SDS011;10727;43.600;1.444;2023-04-01T07:06:21;19.83;;;3.88;;
21138;SDS011;10727;43.600;1.444;2023-04-01T07:09:31;22.98;;;4.40;;
21138;SDS011;10727;43.600;1.444;2023-04-01T07:12:56;20.17;;;3.70;;
21138;SDS011;10727;43.600;1.444;2023-04-01T07:16:11;24.70;;;4.43;;
21138;SDS011;10727;43.600;1.444;2023-04-01T07:19:20;23.33;;;4.10;;
21138;SDS011;10727;43.600;1.444;2023-04-01T07:22:40;20.17;;;3.90;;
21138;SDS011;10727;43.600;1.444;2023-04-01T07:25:55;26.77;;;4.82;;
21138;SDS011;10727;43.600;1.444;2023-04-01T07:29:19;25.17;;;4.63;;
21138;SDS011;10727;43.600;1.444;2023-04-01T07:32:32;21.15;;;3.92;;
21138;SDS011;10727;43.600;1.444;2023-04-01T07:35:45;25.60;;;4.88;;
21138;SDS011;10727;43.600;1.444;2023-04-01T07:38:54;29.52;;;5.57;;
21138;SDS011;10727;43.600;1.444;2023-04-01T07:42:24;25.83;;;4.72;;
21138;SDS011;10727;43.600;1.444;2023-04-01T07:45:34;23.17;;;4.28;;
21138;SDS011;10727;43.600;1.444;2023-04-01T07:48:46;21.00;;;3.70;;
21138;SDS011;10727;43.600;1.444;2023-04-01T07:51:56;27.85;;;4.90;;
21138;SDS011;10727;43.600;1.444;2023-04-01T07:55:06;18.98;;;4.28;;
21138;SDS011;10727;43.600;1.444;2023-04-01T07:58:14;20.42;;;4.13;;
21138;SDS011;10727;43.600;1.444;2023-04-01T08:01:24;26.85;;;4.30;;
21138;SDS011;10727;43.600;1.444;2023-04-01T08:04:40;24.02;;;4.57;;
21138;SDS011;10727;43.600;1.444;2023-04-01T08:07:49;24.73;;;4.70;;
21138;SDS011;10727;43.600;1.444;2023-04-01T08:11:25;21.30;;;4.05;;
21138;SDS011;10727;43.600;1.444;2023-04-01T08:15:06;23.25;;;3.65;;
21138;SDS011;10727;43.600;1.444;2023-04-01T08:18:37;28.02;;;4.40;;
21138;SDS011;10727;43.600;1.444;2023-04-01T08:21:47;24.13;;;4.45;;
21138;SDS011;10727;43.600;1.444;2023-04-01T08:24:53;26.35;;;4.78;;
21138;SDS011;10727;43.600;1.444;2023-04-01T08:28:03;21.58;;;4.07;;
21138;SDS011;10727;43.600;1.444;2023-04-01T08:31:10;24.38;;;3.88;;
21138;SDS011;10727;43.600;1.444;2023-04-01T08:34:20;28.88;;;4.65;;
21138;SDS011;10727;43.600;1.444;2023-04-01T08:37:28;19.35;;;4.03;;
21138;SDS011;10727;43.600;1.444;2023-04-01T08:40:39;25.80;;;3.75;;
21138;SDS011;10727;43.600;1.444;2023-04-01T08:43:58;23.90;;;3.90;;
21138;SDS011;10727;43.600;1.444;2023-04-01T08:50:36;19.85;;;3.28;;
21138;SDS011;10727;43.600;1.444;2023-04-01T08:53:59;20.02;;;3.80;;
21138;SDS011;10727;43.600;1.444;2023-04-01T08:57:10;21.08;;;3.90;;
21138;SDS011;10727;43.600;1.444;2023-04-01T09:00:41;15.35;;;3.60;;
21138;SDS011;10727;43.600;1.444;2023-04-01T09:07:15;14.82;;;3.53;;
21138;SDS011;10727;43.600;1.444;2023-04-01T09:14:39;14.30;;;3.05;;
21138;SDS011;10727;43.600;1.444;2023-04-01T09:18:03;14.25;;;3.25;;
21138;SDS011;10727;43.600;1.444;2023-04-01T09:21:19;13.85;;;2.67;;
21138;SDS011;10727;43.600;1.444;2023-04-01T09:24:30;11.63;;;2.97;;
21138;SDS011;10727;43.600;1.444;2023-04-01T09:27:41;13.13;;;2.50;;
21138;SDS011;10727;43.600;1.444;2023-04-01T09:30:59;10.75;;;2.33;;
21138;SDS011;10727;43.600;1.444;2023-04-01T09:37:41;9.52;;;2.05;;
21138;SDS011;10727;43.600;1.444;2023-04-01T09:41:01;6.70;;;1.85;;
21138;SDS011;10727;43.600;1.444;2023-04-01T09:44:27;8.00;;;2.10;;
21138;SDS011;10727;43.600;1.444;2023-04-01T09:47:51;7.22;;;2.00;;
21138;SDS011;10727;43.600;1.444;2023-04-01T09:51:01;6.78;;;1.83;;
21138;SDS011;10727;43.600;1.444;2023-04-01T09:54:15;11.20;;;2.15;;
21138;SDS011;10727;43.600;1.444;2023-04-01T10:01:07;10.45;;;2.13;;
21138;SDS011;10727;43.600;1.444;2023-04-01T10:04:33;8.23;;;2.17;;
21138;SDS011;10727;43.600;1.444;2023-04-01T10:11:37;7.90;;;2.13;;
21138;SDS011;10727;43.600;1.444;2023-04-01T10:18:18;7.75;;;2.08;;
21138;SDS011;10727;43.600;1.444;2023-04-01T10:28:35;8.20;;;2.20;;
21138;SDS011;10727;43.600;1.444;2023-04-01T10:32:23;8.25;;;2.10;;
21138;SDS011;10727;43.600;1.444;2023-04-01T10:35:55;8.68;;;2.50;;
21138;SDS011;10727;43.600;1.444;2023-04-01T10:39:08;10.57;;;2.45;;
21138;SDS011;10727;43.600;1.444;2023-04-01T10:49:44;7.05;;;1.90;;
21138;SDS011;10727;43.600;1.444;2023-04-01T10:53:05;10.20;;;2.30;;
21138;SDS011;10727;43.600;1.444;2023-04-01T10:56:33;11.32;;;2.50;;
21138;SDS011;10727;43.600;1.444;2023-04-01T11:00:05;9.02;;;2.33;;
21138;SDS011;10727;43.600;1.444;2023-04-01T11:07:23;13.25;;;2.38;;
21138;SDS011;10727;43.600;1.444;2023-04-01T11:14:07;13.30;;;2.47;;
21138;SDS011;10727;43.600;1.444;2023-04-01T11:21:02;13.02;;;2.38;;
21138;SDS011;10727;43.600;1.444;2023-04-01T11:24:23;9.82;;;2.55;;
21138;SDS011;10727;43.600;1.444;2023-04-01T11:27:53;12.18;;;2.35;;
21138;SDS011;10727;43.600;1.444;2023-04-01T11:34:38;10.93;;;2.30;;
21138;SDS011;10727;43.600;1.444;2023-04-01T11:37:50;11.50;;;2.90;;
21138;SDS011;10727;43.600;1.444;2023-04-01T11:41:35;8.52;;;1.90;;
21138;SDS011;10727;43.600;1.444;2023-04-01T11:45:20;6.65;;;2.10;;
21138;SDS011;10727;43.600;1.444;2023-04-01T11:48:32;8.10;;;2.42;;
21138;SDS011;10727;43.600;1.444;2023-04-01T11:51:51;6.00;;;2.20;;
21138;SDS011;10727;43.600;1.444;2023-04-01T11:55:06;11.40;;;2.50;;
21138;SDS011;10727;43.600;1.444;2023-04-01T11:58:32;8.65;;;1.90;;
21138;SDS011;10727;43.600;1.444;2023-04-01T12:01:44;8.07;;;2.20;;
21138;SDS011;10727;43.600;1.444;2023-04-01T12:08:19;6.43;;;1.70;;
21138;SDS011;10727;43.600;1.444;2023-04-01T12:11:30;9.07;;;2.85;;
21138;SDS011;10727;43.600;1.444;2023-04-01T12:14:39;5.05;;;2.08;;
21138;SDS011;10727;43.600;1.444;2023-04-01T12:17:50;7.80;;;2.00;;
21138;SDS011;10727;43.600;1.444;2023-04-01T12:21:00;7.05;;;1.70;;
21138;SDS011;10727;43.600;1.444;2023-04-01T12:27:44;5.80;;;1.92;;
21138;SDS011;10727;43.600;1.444;2023-04-01T12:30:56;7.10;;;1.80;;
21138;SDS011;10727;43.600;1.444;2023-04-01T12:34:12;7.38;;;2.10;;
21138;SDS011;10727;43.600;1.444;2023-04-01T12:37:20;5.65;;;1.73;;
21138;SDS011;10727;43.600;1.444;2023-04-01T12:40:31;5.47;;;1.63;;
21138;SDS011;10727;43.600;1.444;2023-04-01T12:54:08;6.03;;;1.52;;
21138;SDS011;10727;43.600;1.444;2023-04-01T12:57:23;5.25;;;1.90;;
21138;SDS011;10727;43.600;1.444;2023-04-01T13:00:36;5.00;;;1.65;;
21138;SDS011;10727;43.600;1.444;2023-04-01T13:03:52;7.10;;;1.83;;
21138;SDS011;10727;43.600;1.444;2023-04-01T13:10:32;8.10;;;1.85;;
21138;SDS011;10727;43.600;1.444;2023-04-01T13:13:56;17.13;;;2.42;;
21138;SDS011;10727;43.600;1.444;2023-04-01T13:17:10;5.13;;;1.80;;
21138;SDS011;10727;43.600;1.444;2023-04-01T13:20:20;6.72;;;1.83;;
21138;SDS011;10727;43.600;1.444;2023-04-01T13:23:33;6.75;;;1.73;;
21138;SDS011;10727;43.600;1.444;2023-04-01T13:26:45;5.43;;;1.60;;
21138;SDS011;10727;43.600;1.444;2023-04-01T13:29:59;7.18;;;1.85;;
21138;SDS011;10727;43.600;1.444;2023-04-01T13:33:10;5.68;;;1.55;;
21138;SDS011;10727;43.600;1.444;2023-04-01T13:36:19;12.68;;;2.05;;
21138;SDS011;10727;43.600;1.444;2023-04-01T13:39:35;10.10;;;2.05;;
21138;SDS011;10727;43.600;1.444;2023-04-01T13:42:45;7.82;;;1.60;;
21138;SDS011;10727;43.600;1.444;2023-04-01T13:46:04;4.80;;;1.60;;
21138;SDS011;10727;43.600;1.444;2023-04-01T13:49:19;3.58;;;1.50;;
21138;SDS011;10727;43.600;1.444;2023-04-01T13:52:41;5.57;;;1.50;;
21138;SDS011;10727;43.600;1.444;2023-04-01T13:55:55;6.68;;;1.33;;
21138;SDS011;10727;43.600;1.444;2023-04-01T14:02:42;6.80;;;1.52;;
21138;SDS011;10727;43.600;1.444;2023-04-01T14:05:54;5.90;;;1.83;;
21138;SDS011;10727;43.600;1.444;2023-04-01T14:12:27;5.43;;;1.50;;
21138;SDS011;10727;43.600;1.444;2023-04-01T14:15:38;7.30;;;1.75;;
21138;SDS011;10727;43.600;1.444;2023-04-01T14:18:59;5.78;;;1.67;;
21138;SDS011;10727;43.600;1.444;2023-04-01T14:22:10;5.63;;;1.80;;
21138;SDS011;10727;43.600;1.444;2023-04-01T14:25:23;6.28;;;1.50;;
21138;SDS011;10727;43.600;1.444;2023-04-01T14:28:36;7.05;;;1.90;;
21138;SDS011;10727;43.600;1.444;2023-04-01T14:31:44;9.57;;;2.38;;
21138;SDS011;10727;43.600;1.444;2023-04-01T14:34:55;6.20;;;1.70;;
21138;SDS011;10727;43.600;1.444;2023-04-01T14:38:11;9.70;;;2.50;;
21138;SDS011;10727;43.600;1.444;2023-04-01T14:41:26;9.15;;;2.00;;
21138;SDS011;10727;43.600;1.444;2023-04-01T14:44:42;4.85;;;1.88;;
21138;SDS011;10727;43.600;1.444;2023-04-01T14:47:54;8.07;;;1.95;;
21138;SDS011;10727;43.600;1.444;2023-04-01T14:51:08;8.27;;;1.85;;
21138;SDS011;10727;43.600;1.444;2023-04-01T14:54:15;11.18;;;1.85;;
21138;SDS011;10727;43.600;1.444;2023-04-01T14:57:27;9.20;;;2.00;;
21138;SDS011;10727;43.600;1.444;2023-04-01T15:00:39;10.57;;;2.15;;
21138;SDS011;10727;43.600;1.444;2023-04-01T15:03:48;9.23;;;1.80;;
21138;SDS011;10727;43.600;1.444;2023-04-01T15:13:58;9.15;;;1.73;;
21138;SDS011;10727;43.600;1.444;2023-04-01T15:20:34;8.80;;;1.67;;
21138;SDS011;10727;43.600;1.444;2023-04-01T16:02:42;6.40;;;2.25;;
21138;SDS011;10727;43.600;1.444;2023-04-01T16:11:09;3.95;;;2.05;;
21138;SDS011;10727;43.600;1.444;2023-04-01T16:14:23;5.32;;;1.90;;
21138;SDS011;10727;43.600;1.444;2023-04-01T16:17:44;4.30;;;2.13;;
21138;SDS011;10727;43.600;1.444;2023-04-01T16:20:53;4.65;;;1.80;;
21138;SDS011;10727;43.600;1.444;2023-04-01T16:24:00;5.68;;;2.20;;
21138;SDS011;10727;43.600;1.444;2023-04-01T16:27:09;6.40;;;2.40;;
21138;SDS011;10727;43.600;1.444;2023-04-01T16:30:23;6.72;;;2.08;;
21138;SDS011;10727;43.600;1.444;2023-04-01T16:33:34;6.40;;;2.10;;
21138;SDS011;10727;43.600;1.444;2023-04-01T16:36:41;6.10;;;1.92;;
21138;SDS011;10727;43.600;1.444;2023-04-01T16:39:50;7.10;;;1.63;;
21138;SDS011;10727;43.600;1.444;2023-04-01T16:42:57;6.18;;;1.58;;
21138;SDS011;10727;43.600;1.444;2023-04-01T16:46:15;4.97;;;1.60;;
21138;SDS011;10727;43.600;1.444;2023-04-01T16:49:25;4.65;;;1.55;;
21138;SDS011;10727;43.600;1.444;2023-04-01T16:52:40;7.65;;;1.73;;
21138;SDS011;10727;43.600;1.444;2023-04-01T16:55:49;3.20;;;1.30;;
21138;SDS011;10727;43.600;1.444;2023-04-01T16:58:58;5.05;;;1.58;;
21138;SDS011;10727;43.600;1.444;2023-04-01T17:02:08;5.28;;;1.42;;
21138;SDS011;10727;43.600;1.444;2023-04-01T17:05:17;4.47;;;1.70;;
21138;SDS011;10727;43.600;1.444;2023-04-01T17:08:26;6.38;;;1.63;;
21138;SDS011;10727;43.600;1.444;2023-04-01T17:11:34;4.07;;;1.48;;
21138;SDS011;10727;43.600;1.444;2023-04-01T17:14:45;6.05;;;1.65;;
21138;SDS011;10727;43.600;1.444;2023-04-01T17:17:51;5.70;;;1.70;;
21138;SDS011;10727;43.600;1.444;2023-04-01T17:21:06;34.08;;;22.63;;
21138;SDS011;10727;43.600;1.444;2023-04-01T17:24:14;14.82;;;7.38;;
21138;SDS011;10727;43.600;1.444;2023-04-01T17:27:30;10.88;;;2.78;;
21138;SDS011;10727;43.600;1.444;2023-04-01T17:30:37;7.95;;;1.92;;
21138;SDS011;10727;43.600;1.444;2023-04-01T17:33:47;5.68;;;1.67;;
21138;SDS011;10727;43.600;1.444;2023-04-01T17:37:00;5.38;;;1.45;;
21138;SDS011;10727;43.600;1.444;2023-04-01T17:40:15;4.75;;;1.67;;
21138;SDS011;10727;43.600;1.444;2023-04-01T17:43:25;4.90;;;1.73;;
21138;SDS011;10727;43.600;1.444;2023-04-01T17:46:36;5.78;;;1.80;;
21138;SDS011;10727;43.600;1.444;2023-04-01T17:49:45;5.82;;;1.88;;
21138;SDS011;10727;43.600;1.444;2023-04-01T17:52:58;4.50;;;1.52;;
21138;SDS011;10727;43.600;1.444;2023-04-01T17:56:12;5.90;;;1.80;;
21138;SDS011;10727;43.600;1.444;2023-04-01T17:59:21;8.52;;;1.80;;
21138;SDS011;10727;43.600;1.444;2023-04-01T18:02:29;3.40;;;1.40;;
21138;SDS011;10727;43.600;1.444;2023-04-01T18:05:40;20.73;;;12.98;;
21138;SDS011;10727;43.600;1.444;2023-04-01T18:08:56;5.35;;;2.25;;
21138;SDS011;10727;43.600;1.444;2023-04-01T18:12:05;4.03;;;1.60;;
21138;SDS011;10727;43.600;1.444;2023-04-01T18:15:15;5.05;;;1.60;;
21138;SDS011;10727;43.600;1.444;2023-04-01T18:18:30;5.65;;;1.90;;
21138;SDS011;10727;43.600;1.444;2023-04-01T18:21:41;7.80;;;1.80;;
21138;SDS011;10727;43.600;1.444;2023-04-01T18:24:54;6.13;;;1.60;;
21138;SDS011;10727;43.600;1.444;2023-04-01T18:31:32;6.97;;;2.13;;
21138;SDS011;10727;43.600;1.444;2023-04-01T18:34:40;6.55;;;1.92;;
21138;SDS011;10727;43.600;1.444;2023-04-01T18:37:47;6.43;;;1.98;;
21138;SDS011;10727;43.600;1.444;2023-04-01T18:41:01;6.00;;;2.00;;
21138;SDS011;10727;43.600;1.444;2023-04-01T18:44:12;4.63;;;1.92;;
21138;SDS011;10727;43.600;1.444;2023-04-01T18:47:23;7.22;;;2.28;;
21138;SDS011;10727;43.600;1.444;2023-04-01T18:50:32;6.05;;;2.17;;
21138;SDS011;10727;43.600;1.444;2023-04-01T18:53:41;6.82;;;2.55;;
21138;SDS011;10727;43.600;1.444;2023-04-01T18:56:51;7.60;;;3.55;;
21138;SDS011;10727;43.600;1.444;2023-04-01T19:00:04;50.67;;;30.95;;
21138;SDS011;10727;43.600;1.444;2023-04-01T19:03:11;12.18;;;4.80;;
21138;SDS011;10727;43.600;1.444;2023-04-01T19:06:20;5.28;;;2.42;;
21138;SDS011;10727;43.600;1.444;2023-04-01T19:09:27;6.05;;;2.58;;
21138;SDS011;10727;43.600;1.444;2023-04-01T19:12:38;8.93;;;2.50;;
21138;SDS011;10727;43.600;1.444;2023-04-01T19:15:46;7.88;;;2.35;;
21138;SDS011;10727;43.600;1.444;2023-04-01T19:18:58;7.80;;;2.40;;
21138;SDS011;10727;43.600;1.444;2023-04-01T19:22:12;8.65;;;2.30;;
21138;SDS011;10727;43.600;1.444;2023-04-01T19:25:27;6.80;;;2.13;;
21138;SDS011;10727;43.600;1.444;2023-04-01T19:28:39;8.32;;;2.40;;
21138;SDS011;10727;43.600;1.444;2023-04-01T19:31:51;5.40;;;2.20;;
21138;SDS011;10727;43.600;1.444;2023-04-01T19:35:03;4.65;;;2.10;;
21138;SDS011;10727;43.600;1.444;2023-04-01T19:38:14;4.28;;;2.08;;
21138;SDS011;10727;43.600;1.444;2023-04-01T19:41:24;5.60;;;1.85;;
21138;SDS011;10727;43.600;1.444;2023-04-01T19:44:36;7.05;;;2.17;;
21138;SDS011;10727;43.600;1.444;2023-04-01T19:47:49;6.25;;;2.00;;
21138;SDS011;10727;43.600;1.444;2023-04-01T19:50:59;5.07;;;2.15;;
21138;SDS011;10727;43.600;1.444;2023-04-01T19:54:10;5.80;;;2.03;;
21138;SDS011;10727;43.600;1.444;2023-04-01T19:57:22;5.28;;;1.90;;
21138;SDS011;10727;43.600;1.444;2023-04-01T20:00:32;5.75;;;1.70;;
21138;SDS011;10727;43.600;1.444;2023-04-01T20:03:40;5.63;;;1.90;;
21138;SDS011;10727;43.600;1.444;2023-04-01T20:06:48;7.28;;;1.92;;
21138;SDS011;10727;43.600;1.444;2023-04-01T20:09:57;4.55;;;1.80;;
21138;SDS011;10727;43.600;1.444;2023-04-01T20:13:06;6.43;;;2.40;;
21138;SDS011;10727;43.600;1.444;2023-04-01T20:16:18;21.90;;;11.18;;
21138;SDS011;10727;43.600;1.444;2023-04-01T20:19:26;14.40;;;7.68;;
21138;SDS011;10727;43.600;1.444;2023-04-01T20:22:37;8.63;;;2.85;;
21138;SDS011;10727;43.600;1.444;2023-04-01T20:25:43;5.60;;;2.05;;
21138;SDS011;10727;43.600;1.444;2023-04-01T20:28:58;5.65;;;2.40;;
21138;SDS011;10727;43.600;1.444;2023-04-01T20:32:08;6.68;;;2.70;;
21138;SDS011;10727;43.600;1.444;2023-04-01T20:35:26;5.90;;;2.30;;
21138;SDS011;10727;43.600;1.444;2023-04-01T20:38:41;9.43;;;2.20;;
21138;SDS011;10727;43.600;1.444;2023-04-01T20:41:54;6.75;;;2.30;;
21138;SDS011;10727;43.600;1.444;2023-04-01T20:45:10;7.18;;;2.30;;
21138;SDS011;10727;43.600;1.444;2023-04-01T20:48:24;7.45;;;2.53;;
21138;SDS011;10727;43.600;1.444;2023-04-01T20:51:34;7.13;;;2.65;;
21138;SDS011;10727;43.600;1.444;2023-04-01T20:54:46;6.78;;;2.45;;
21138;SDS011;10727;43.600;1.444;2023-04-01T20:57:57;6.60;;;2.47;;
21138;SDS011;10727;43.600;1.444;2023-04-01T21:01:08;6.57;;;3.03;;
21138;SDS011;10727;43.600;1.444;2023-04-01T21:04:24;8.95;;;2.80;;
21138;SDS011;10727;43.600;1.444;2023-04-01T21:07:33;8.55;;;2.67;;
21138;SDS011;10727;43.600;1.444;2023-04-01T21:10:43;7.43;;;2.25;;
21138;SDS011;10727;43.600;1.444;2023-04-01T21:13:52;11.88;;;2.85;;
21138;SDS011;10727;43.600;1.444;2023-04-01T21:17:02;9.27;;;3.05;;
21138;SDS011;10727;43.600;1.444;2023-04-01T21:20:22;8.05;;;2.60;;
21138;SDS011;10727;43.600;1.444;2023-04-01T21:23:36;9.07;;;2.83;;
21138;SDS011;10727;43.600;1.444;2023-04-01T21:26:45;8.20;;;2.28;;
21138;SDS011;10727;43.600;1.444;2023-04-01T21:29:53;12.27;;;2.60;;
21138;SDS011;10727;43.600;1.444;2023-04-01T21:33:04;9.75;;;2.03;;